sensor_id;sensor_type;location;lat;lon;timestamp;P1;durP1;ratioP1;P2;durP2;ratioP2
9166;SDS011;4618;48.818;9.088;2023-06-22T00:00:18;11.10;;;10.20;;
9166;SDS011;4618;48.818;9.088;2023-06-22T00:02:45;11.93;;;10.83;;
9166;SDS011;4618;48.818;9.088;2023-06-22T00:05:10;12.73;;;10.50;;
9166;SDS011;4618;48.818;9.088;2023-06-22T00:07:36;11.53;;;10.53;;
9166;SDS011;4618;48.818;9.088;2023-06-22T00:10:01;14.50;;;10.27;;
9166;SDS011;4618;48.818;9.088;2023-06-22T00:12:27;11.90;;;10.70;;
9166;SDS011;4618;48.818;9.088;2023-06-22T00:14:52;11.93;;;9.87;;
9166;SDS011;4618;48.818;9.088;2023-06-22T00:17:18;11.60;;;10.40;;
9166;SDS011;4618;48.818;9.088;2023-06-22T00:19:46;11.23;;;10.10;;
9166;SDS011;4618;48.818;9.088;2023-06-22T00:22:12;10.53;;;9.50;;
9166;SDS011;4618;48.818;9.088;2023-06-22T00:24:37;13.50;;;10.47;;
9166;SDS011;4618;48.818;9.088;2023-06-22T00:27:03;10.20;;;9.30;;
9166;SDS011;4618;48.818;9.088;2023-06-22T00:29:30;10.60;;;9.70;;
9166;SDS011;4618;48.818;9.088;2023-06-22T00:31:56;10.80;;;9.70;;
9166;SDS011;4618;48.818;9.088;2023-06-22T00:34:21;10.83;;;9.80;;
9166;SDS011;4618;48.818;9.088;2023-06-22T00:36:47;11.10;;;10.00;;
9166;SDS011;4618;48.818;9.088;2023-06-22T00:39:13;10.27;;;9.20;;
9166;SDS011;4618;48.818;9.088;2023-06-22T00:41:38;11.07;;;9.97;;
9166;SDS011;4618;48.818;9.088;2023-06-22T00:44:04;11.20;;;10.00;;
9166;SDS011;4618;48.818;9.088;2023-06-22T00:46:30;10.93;;;9.93;;
9166;SDS011;4618;48.818;9.088;2023-06-22T00:48:55;11.20;;;10.10;;
9166;SDS011;4618;48.818;9.088;2023-06-22T00:51:22;10.97;;;9.97;;
9166;SDS011;4618;48.818;9.088;2023-06-22T00:53:49;13.00;;;10.17;;
9166;SDS011;4618;48.818;9.088;2023-06-22T00:56:16;10.93;;;9.57;;
9166;SDS011;4618;48.818;9.088;2023-06-22T00:58:44;12.00;;;10.10;;
9166;SDS011;4618;48.818;9.088;2023-06-22T01:01:12;12.50;;;10.00;;
9166;SDS011;4618;48.818;9.088;2023-06-22T01:03:39;15.77;;;10.60;;
9166;SDS011;4618;48.818;9.088;2023-06-22T01:06:09;15.40;;;11.80;;
9166;SDS011;4618;48.818;9.088;2023-06-22T01:08:42;15.70;;;10.60;;
9166;SDS011;4618;48.818;9.088;2023-06-22T01:11:31;14.07;;;11.40;;
9166;SDS011;4618;48.818;9.088;2023-06-22T01:16:31;14.40;;;12.47;;
9166;SDS011;4618;48.818;9.088;2023-06-22T01:19:00;14.17;;;12.73;;
9166;SDS011;4618;48.818;9.088;2023-06-22T01:21:31;15.97;;;14.17;;
9166;SDS011;4618;48.818;9.088;2023-06-22T01:24:18;15.97;;;14.30;;
9166;SDS011;4618;48.818;9.088;2023-06-22T01:29:40;16.27;;;14.57;;
9166;SDS011;4618;48.818;9.088;2023-06-22T01:32:08;18.00;;;14.87;;
9166;SDS011;4618;48.818;9.088;2023-06-22T01:34:35;16.97;;;14.37;;
9166;SDS011;4618;48.818;9.088;2023-06-22T01:37:01;14.90;;;13.30;;
9166;SDS011;4618;48.818;9.088;2023-06-22T01:39:28;17.57;;;15.77;;
9166;SDS011;4618;48.818;9.088;2023-06-22T01:41:55;18.17;;;15.20;;
9166;SDS011;4618;48.818;9.088;2023-06-22T01:44:21;15.93;;;14.27;;
9166;SDS011;4618;48.818;9.088;2023-06-22T01:46:49;17.93;;;15.93;;
9166;SDS011;4618;48.818;9.088;2023-06-22T01:49:16;16.17;;;14.67;;
9166;SDS011;4618;48.818;9.088;2023-06-22T01:51:41;16.33;;;14.67;;
9166;SDS011;4618;48.818;9.088;2023-06-22T01:54:07;17.27;;;14.57;;
9166;SDS011;4618;48.818;9.088;2023-06-22T01:56:35;18.67;;;14.70;;
9166;SDS011;4618;48.818;9.088;2023-06-22T02:01:48;15.20;;;13.30;;
9166;SDS011;4618;48.818;9.088;2023-06-22T02:04:21;15.17;;;13.20;;
9166;SDS011;4618;48.818;9.088;2023-06-22T02:06:51;13.57;;;12.03;;
9166;SDS011;4618;48.818;9.088;2023-06-22T02:09:21;14.10;;;12.60;;
9166;SDS011;4618;48.818;9.088;2023-06-22T02:11:48;14.70;;;13.30;;
9166;SDS011;4618;48.818;9.088;2023-06-22T02:14:19;16.03;;;14.63;;
9166;SDS011;4618;48.818;9.088;2023-06-22T02:16:46;15.63;;;14.13;;
9166;SDS011;4618;48.818;9.088;2023-06-22T02:19:11;18.40;;;14.03;;
9166;SDS011;4618;48.818;9.088;2023-06-22T02:21:37;15.27;;;13.67;;
9166;SDS011;4618;48.818;9.088;2023-06-22T02:24:03;14.53;;;12.87;;
9166;SDS011;4618;48.818;9.088;2023-06-22T02:26:29;13.77;;;12.37;;
9166;SDS011;4618;48.818;9.088;2023-06-22T02:28:55;14.33;;;12.90;;
9166;SDS011;4618;48.818;9.088;2023-06-22T02:31:21;14.47;;;13.00;;
9166;SDS011;4618;48.818;9.088;2023-06-22T02:33:46;14.57;;;12.27;;
9166;SDS011;4618;48.818;9.088;2023-06-22T02:36:13;13.93;;;12.53;;
9166;SDS011;4618;48.818;9.088;2023-06-22T02:38:42;13.30;;;12.00;;
9166;SDS011;4618;48.818;9.088;2023-06-22T02:41:13;14.73;;;13.13;;
9166;SDS011;4618;48.818;9.088;2023-06-22T02:43:42;15.83;;;13.00;;
9166;SDS011;4618;48.818;9.088;2023-06-22T02:46:09;15.90;;;14.30;;
9166;SDS011;4618;48.818;9.088;2023-06-22T02:48:34;17.63;;;13.70;;
9166;SDS011;4618;48.818;9.088;2023-06-22T02:51:00;15.37;;;13.93;;
9166;SDS011;4618;48.818;9.088;2023-06-22T02:53:26;15.40;;;14.00;;
9166;SDS011;4618;48.818;9.088;2023-06-22T02:55:51;16.27;;;14.63;;
9166;SDS011;4618;48.818;9.088;2023-06-22T02:58:17;15.67;;;14.27;;
9166;SDS011;4618;48.818;9.088;2023-06-22T03:00:42;18.83;;;14.87;;
9166;SDS011;4618;48.818;9.088;2023-06-22T03:03:08;22.10;;;15.53;;
9166;SDS011;4618;48.818;9.088;2023-06-22T03:05:33;19.63;;;15.93;;
9166;SDS011;4618;48.818;9.088;2023-06-22T03:08:00;16.93;;;15.30;;
9166;SDS011;4618;48.818;9.088;2023-06-22T03:10:25;19.50;;;16.30;;
9166;SDS011;4618;48.818;9.088;2023-06-22T03:12:51;18.13;;;16.13;;
9166;SDS011;4618;48.818;9.088;2023-06-22T03:15:17;20.47;;;15.10;;
9166;SDS011;4618;48.818;9.088;2023-06-22T03:17:42;17.37;;;15.50;;
9166;SDS011;4618;48.818;9.088;2023-06-22T03:20:08;17.60;;;15.73;;
9166;SDS011;4618;48.818;9.088;2023-06-22T03:22:36;18.83;;;16.10;;
9166;SDS011;4618;48.818;9.088;2023-06-22T03:25:03;21.43;;;16.30;;
9166;SDS011;4618;48.818;9.088;2023-06-22T03:27:29;17.10;;;14.97;;
9166;SDS011;4618;48.818;9.088;2023-06-22T03:29:56;17.03;;;15.33;;
9166;SDS011;4618;48.818;9.088;2023-06-22T03:32:22;16.97;;;15.27;;
9166;SDS011;4618;48.818;9.088;2023-06-22T03:34:48;16.80;;;15.07;;
9166;SDS011;4618;48.818;9.088;2023-06-22T03:37:14;16.10;;;14.63;;
9166;SDS011;4618;48.818;9.088;2023-06-22T03:39:40;18.10;;;16.33;;
9166;SDS011;4618;48.818;9.088;2023-06-22T03:42:06;17.60;;;15.70;;
9166;SDS011;4618;48.818;9.088;2023-06-22T03:44:33;17.07;;;15.37;;
9166;SDS011;4618;48.818;9.088;2023-06-22T03:46:58;16.63;;;14.93;;
9166;SDS011;4618;48.818;9.088;2023-06-22T03:49:24;16.53;;;14.93;;
9166;SDS011;4618;48.818;9.088;2023-06-22T03:51:49;18.43;;;14.90;;
9166;SDS011;4618;48.818;9.088;2023-06-22T03:54:15;16.90;;;14.40;;
9166;SDS011;4618;48.818;9.088;2023-06-22T03:56:40;19.80;;;15.03;;
9166;SDS011;4618;48.818;9.088;2023-06-22T03:59:06;17.47;;;13.77;;
9166;SDS011;4618;48.818;9.088;2023-06-22T04:01:31;20.27;;;15.43;;
9166;SDS011;4618;48.818;9.088;2023-06-22T04:03:57;18.37;;;14.80;;
9166;SDS011;4618;48.818;9.088;2023-06-22T04:06:22;17.53;;;14.23;;
9166;SDS011;4618;48.818;9.088;2023-06-22T04:08:48;16.87;;;14.50;;
9166;SDS011;4618;48.818;9.088;2023-06-22T04:11:16;18.53;;;14.53;;
9166;SDS011;4618;48.818;9.088;2023-06-22T04:13:42;15.47;;;13.80;;
9166;SDS011;4618;48.818;9.088;2023-06-22T04:16:08;20.17;;;15.33;;
9166;SDS011;4618;48.818;9.088;2023-06-22T04:18:33;16.30;;;14.57;;
9166;SDS011;4618;48.818;9.088;2023-06-22T04:23:27;16.70;;;14.83;;
9166;SDS011;4618;48.818;9.088;2023-06-22T04:25:52;16.13;;;14.27;;
9166;SDS011;4618;48.818;9.088;2023-06-22T04:28:18;15.70;;;13.93;;
9166;SDS011;4618;48.818;9.088;2023-06-22T04:30:43;17.03;;;14.27;;
9166;SDS011;4618;48.818;9.088;2023-06-22T04:33:15;13.83;;;12.43;;
9166;SDS011;4618;48.818;9.088;2023-06-22T04:35:40;15.17;;;12.80;;
9166;SDS011;4618;48.818;9.088;2023-06-22T04:38:07;13.10;;;11.80;;
9166;SDS011;4618;48.818;9.088;2023-06-22T04:40:33;15.80;;;12.43;;
9166;SDS011;4618;48.818;9.088;2023-06-22T04:42:58;13.33;;;12.03;;
9166;SDS011;4618;48.818;9.088;2023-06-22T04:45:27;13.27;;;11.90;;
9166;SDS011;4618;48.818;9.088;2023-06-22T04:47:54;14.90;;;12.47;;
9166;SDS011;4618;48.818;9.088;2023-06-22T04:50:19;12.83;;;11.60;;
9166;SDS011;4618;48.818;9.088;2023-06-22T04:52:46;14.77;;;11.80;;
9166;SDS011;4618;48.818;9.088;2023-06-22T04:55:12;11.40;;;10.20;;
9166;SDS011;4618;48.818;9.088;2023-06-22T04:57:44;11.53;;;10.40;;
9166;SDS011;4618;48.818;9.088;2023-06-22T05:00:13;15.13;;;10.63;;
9166;SDS011;4618;48.818;9.088;2023-06-22T05:02:43;12.80;;;10.80;;
9166;SDS011;4618;48.818;9.088;2023-06-22T05:05:10;14.10;;;10.80;;
9166;SDS011;4618;48.818;9.088;2023-06-22T05:07:42;12.00;;;10.80;;
9166;SDS011;4618;48.818;9.088;2023-06-22T05:10:09;11.27;;;10.27;;
9166;SDS011;4618;48.818;9.088;2023-06-22T05:12:37;12.17;;;10.93;;
9166;SDS011;4618;48.818;9.088;2023-06-22T05:15:03;14.27;;;10.00;;
9166;SDS011;4618;48.818;9.088;2023-06-22T05:17:30;10.77;;;9.67;;
9166;SDS011;4618;48.818;9.088;2023-06-22T05:19:55;11.47;;;10.13;;
9166;SDS011;4618;48.818;9.088;2023-06-22T05:22:21;10.70;;;9.60;;
9166;SDS011;4618;48.818;9.088;2023-06-22T05:24:46;11.50;;;9.80;;
9166;SDS011;4618;48.818;9.088;2023-06-22T05:27:12;10.20;;;8.77;;
9166;SDS011;4618;48.818;9.088;2023-06-22T05:29:38;11.20;;;9.40;;
9166;SDS011;4618;48.818;9.088;2023-06-22T05:32:05;10.43;;;9.07;;
9166;SDS011;4618;48.818;9.088;2023-06-22T05:34:31;9.37;;;8.40;;
9166;SDS011;4618;48.818;9.088;2023-06-22T05:36:57;11.37;;;9.20;;
9166;SDS011;4618;48.818;9.088;2023-06-22T05:39:25;10.87;;;8.93;;
9166;SDS011;4618;48.818;9.088;2023-06-22T05:41:51;9.27;;;8.40;;
9166;SDS011;4618;48.818;9.088;2023-06-22T05:44:17;9.93;;;8.80;;
9166;SDS011;4618;48.818;9.088;2023-06-22T05:46:43;11.37;;;9.13;;
9166;SDS011;4618;48.818;9.088;2023-06-22T05:49:11;8.90;;;7.97;;
9166;SDS011;4618;48.818;9.088;2023-06-22T05:51:37;9.30;;;8.20;;
9166;SDS011;4618;48.818;9.088;2023-06-22T05:54:03;10.40;;;8.90;;
9166;SDS011;4618;48.818;9.088;2023-06-22T05:56:28;9.23;;;8.27;;
9166;SDS011;4618;48.818;9.088;2023-06-22T05:58:54;9.93;;;7.63;;
9166;SDS011;4618;48.818;9.088;2023-06-22T06:01:19;10.47;;;9.10;;
9166;SDS011;4618;48.818;9.088;2023-06-22T06:03:45;9.40;;;8.27;;
9166;SDS011;4618;48.818;9.088;2023-06-22T06:06:11;9.27;;;8.20;;
9166;SDS011;4618;48.818;9.088;2023-06-22T06:08:37;9.97;;;7.90;;
9166;SDS011;4618;48.818;9.088;2023-06-22T06:11:03;10.13;;;7.83;;
9166;SDS011;4618;48.818;9.088;2023-06-22T06:13:29;9.10;;;8.20;;
9166;SDS011;4618;48.818;9.088;2023-06-22T06:15:54;9.20;;;8.23;;
9166;SDS011;4618;48.818;9.088;2023-06-22T06:18:21;8.43;;;7.63;;
9166;SDS011;4618;48.818;9.088;2023-06-22T06:20:46;8.33;;;7.47;;
9166;SDS011;4618;48.818;9.088;2023-06-22T06:23:12;9.87;;;7.43;;
9166;SDS011;4618;48.818;9.088;2023-06-22T06:25:38;8.25;;;7.45;;
9166;SDS011;4618;48.818;9.088;2023-06-22T06:28:03;8.63;;;7.38;;
9166;SDS011;4618;48.818;9.088;2023-06-22T06:30:29;8.35;;;7.57;;
9166;SDS011;4618;48.818;9.088;2023-06-22T06:32:55;12.15;;;7.32;;
9166;SDS011;4618;48.818;9.088;2023-06-22T06:35:21;8.18;;;7.38;;
9166;SDS011;4618;48.818;9.088;2023-06-22T06:37:48;8.52;;;7.00;;
9166;SDS011;4618;48.818;9.088;2023-06-22T06:40:15;9.48;;;7.68;;
9166;SDS011;4618;48.818;9.088;2023-06-22T06:42:46;8.20;;;7.40;;
9166;SDS011;4618;48.818;9.088;2023-06-22T06:45:14;8.60;;;6.93;;
9166;SDS011;4618;48.818;9.088;2023-06-22T06:47:40;8.02;;;6.85;;
9166;SDS011;4618;48.818;9.088;2023-06-22T06:50:06;8.65;;;7.47;;
9166;SDS011;4618;48.818;9.088;2023-06-22T06:52:32;7.68;;;6.88;;
9166;SDS011;4618;48.818;9.088;2023-06-22T06:54:58;9.02;;;6.85;;
9166;SDS011;4618;48.818;9.088;2023-06-22T06:57:24;8.10;;;6.80;;
9166;SDS011;4618;48.818;9.088;2023-06-22T06:59:53;10.93;;;6.97;;
9166;SDS011;4618;48.818;9.088;2023-06-22T07:02:22;8.75;;;6.75;;
9166;SDS011;4618;48.818;9.088;2023-06-22T07:04:48;7.38;;;6.68;;
9166;SDS011;4618;48.818;9.088;2023-06-22T07:07:14;8.27;;;6.75;;
9166;SDS011;4618;48.818;9.088;2023-06-22T07:09:40;7.40;;;6.20;;
9166;SDS011;4618;48.818;9.088;2023-06-22T07:12:06;8.88;;;5.78;;
9166;SDS011;4618;48.818;9.088;2023-06-22T07:14:32;6.45;;;5.85;;
9166;SDS011;4618;48.818;9.088;2023-06-22T07:16:58;8.18;;;5.50;;
9166;SDS011;4618;48.818;9.088;2023-06-22T07:19:26;6.35;;;5.70;;
9166;SDS011;4618;48.818;9.088;2023-06-22T07:21:53;6.35;;;5.50;;
9166;SDS011;4618;48.818;9.088;2023-06-22T07:24:22;7.55;;;6.32;;
9166;SDS011;4618;48.818;9.088;2023-06-22T07:26:49;6.28;;;5.38;;
9166;SDS011;4618;48.818;9.088;2023-06-22T07:29:18;6.30;;;5.70;;
9166;SDS011;4618;48.818;9.088;2023-06-22T07:31:46;7.32;;;5.78;;
9166;SDS011;4618;48.818;9.088;2023-06-22T07:34:12;9.50;;;5.72;;
9166;SDS011;4618;48.818;9.088;2023-06-22T07:36:38;6.95;;;5.82;;
9166;SDS011;4618;48.818;9.088;2023-06-22T07:39:04;7.85;;;5.32;;
9166;SDS011;4618;48.818;9.088;2023-06-22T07:41:30;6.68;;;5.22;;
9166;SDS011;4618;48.818;9.088;2023-06-22T07:43:56;5.65;;;4.80;;
9166;SDS011;4618;48.818;9.088;2023-06-22T07:46:22;8.45;;;5.38;;
9166;SDS011;4618;48.818;9.088;2023-06-22T07:48:48;5.63;;;4.95;;
9166;SDS011;4618;48.818;9.088;2023-06-22T07:51:13;6.05;;;4.88;;
9166;SDS011;4618;48.818;9.088;2023-06-22T07:53:43;7.07;;;5.10;;
9166;SDS011;4618;48.818;9.088;2023-06-22T07:56:12;5.70;;;4.70;;
9166;SDS011;4618;48.818;9.088;2023-06-22T07:58:38;4.93;;;4.43;;
9166;SDS011;4618;48.818;9.088;2023-06-22T08:01:04;5.50;;;4.30;;
9166;SDS011;4618;48.818;9.088;2023-06-22T08:03:31;6.13;;;4.93;;
9166;SDS011;4618;48.818;9.088;2023-06-22T08:05:57;7.43;;;4.57;;
9166;SDS011;4618;48.818;9.088;2023-06-22T08:08:23;5.68;;;4.28;;
9166;SDS011;4618;48.818;9.088;2023-06-22T08:10:49;6.07;;;4.45;;
9166;SDS011;4618;48.818;9.088;2023-06-22T08:13:14;5.82;;;4.60;;
9166;SDS011;4618;48.818;9.088;2023-06-22T08:15:40;6.20;;;4.10;;
9166;SDS011;4618;48.818;9.088;2023-06-22T08:18:05;5.85;;;4.22;;
9166;SDS011;4618;48.818;9.088;2023-06-22T08:20:31;4.57;;;3.80;;
9166;SDS011;4618;48.818;9.088;2023-06-22T08:22:57;5.30;;;4.03;;
9166;SDS011;4618;48.818;9.088;2023-06-22T08:25:25;4.22;;;3.78;;
9166;SDS011;4618;48.818;9.088;2023-06-22T08:27:51;4.88;;;3.90;;
9166;SDS011;4618;48.818;9.088;2023-06-22T08:30:18;7.00;;;4.15;;
9166;SDS011;4618;48.818;9.088;2023-06-22T08:32:43;4.22;;;3.80;;
9166;SDS011;4618;48.818;9.088;2023-06-22T08:35:09;4.03;;;3.63;;
9166;SDS011;4618;48.818;9.088;2023-06-22T08:37:36;5.13;;;4.03;;
9166;SDS011;4618;48.818;9.088;2023-06-22T08:40:04;5.75;;;4.15;;
9166;SDS011;4618;48.818;9.088;2023-06-22T08:42:31;7.22;;;4.55;;
9166;SDS011;4618;48.818;9.088;2023-06-22T08:44:56;9.52;;;4.32;;
9166;SDS011;4618;48.818;9.088;2023-06-22T08:47:22;8.45;;;4.30;;
9166;SDS011;4618;48.818;9.088;2023-06-22T08:49:48;6.68;;;4.40;;
9166;SDS011;4618;48.818;9.088;2023-06-22T08:52:14;8.32;;;4.57;;
9166;SDS011;4618;48.818;9.088;2023-06-22T08:54:39;7.10;;;4.40;;
9166;SDS011;4618;48.818;9.088;2023-06-22T08:57:05;9.40;;;4.57;;
9166;SDS011;4618;48.818;9.088;2023-06-22T08:59:31;7.45;;;4.50;;
9166;SDS011;4618;48.818;9.088;2023-06-22T09:01:56;6.03;;;4.20;;
9166;SDS011;4618;48.818;9.088;2023-06-22T09:04:22;7.18;;;4.30;;
9166;SDS011;4618;48.818;9.088;2023-06-22T09:06:48;7.68;;;4.53;;
9166;SDS011;4618;48.818;9.088;2023-06-22T09:09:15;7.32;;;4.40;;
9166;SDS011;4618;48.818;9.088;2023-06-22T09:11:41;9.90;;;4.75;;
9166;SDS011;4618;48.818;9.088;2023-06-22T09:14:07;13.55;;;4.82;;
9166;SDS011;4618;48.818;9.088;2023-06-22T09:16:33;7.53;;;4.35;;
9166;SDS011;4618;48.818;9.088;2023-06-22T09:18:59;7.72;;;4.28;;
9166;SDS011;4618;48.818;9.088;2023-06-22T09:21:25;7.25;;;4.53;;
9166;SDS011;4618;48.818;9.088;2023-06-22T09:23:50;13.60;;;4.75;;
9166;SDS011;4618;48.818;9.088;2023-06-22T09:26:17;8.65;;;4.00;;
9166;SDS011;4618;48.818;9.088;2023-06-22T09:28:43;9.98;;;4.00;;
9166;SDS011;4618;48.818;9.088;2023-06-22T09:31:09;7.68;;;4.15;;
9166;SDS011;4618;48.818;9.088;2023-06-22T09:33:35;6.38;;;4.07;;
9166;SDS011;4618;48.818;9.088;2023-06-22T09:36:01;8.20;;;3.95;;
9166;SDS011;4618;48.818;9.088;2023-06-22T09:38:27;6.93;;;3.92;;
9166;SDS011;4618;48.818;9.088;2023-06-22T09:40:52;12.32;;;4.38;;
9166;SDS011;4618;48.818;9.088;2023-06-22T09:43:18;9.30;;;4.40;;
9166;SDS011;4618;48.818;9.088;2023-06-22T09:45:44;9.10;;;4.55;;
9166;SDS011;4618;48.818;9.088;2023-06-22T09:48:11;11.32;;;4.85;;
9166;SDS011;4618;48.818;9.088;2023-06-22T09:50:36;10.00;;;4.32;;
9166;SDS011;4618;48.818;9.088;2023-06-22T09:53:02;9.55;;;4.25;;
9166;SDS011;4618;48.818;9.088;2023-06-22T09:55:28;9.10;;;4.07;;
9166;SDS011;4618;48.818;9.088;2023-06-22T09:57:54;12.20;;;4.55;;
9166;SDS011;4618;48.818;9.088;2023-06-22T10:00:20;7.32;;;4.13;;
9166;SDS011;4618;48.818;9.088;2023-06-22T10:02:47;10.75;;;4.18;;
9166;SDS011;4618;48.818;9.088;2023-06-22T10:05:13;6.40;;;4.28;;
9166;SDS011;4618;48.818;9.088;2023-06-22T10:07:39;7.57;;;4.57;;
9166;SDS011;4618;48.818;9.088;2023-06-22T10:10:08;5.75;;;4.28;;
9166;SDS011;4618;48.818;9.088;2023-06-22T10:12:34;9.18;;;4.70;;
9166;SDS011;4618;48.818;9.088;2023-06-22T10:15:00;9.32;;;4.57;;
9166;SDS011;4618;48.818;9.088;2023-06-22T10:17:25;7.10;;;4.40;;
9166;SDS011;4618;48.818;9.088;2023-06-22T10:19:51;9.13;;;4.35;;
9166;SDS011;4618;48.818;9.088;2023-06-22T10:22:16;8.70;;;4.22;;
9166;SDS011;4618;48.818;9.088;2023-06-22T10:24:42;7.13;;;4.47;;
9166;SDS011;4618;48.818;9.088;2023-06-22T10:27:12;9.68;;;3.88;;
9166;SDS011;4618;48.818;9.088;2023-06-22T10:29:38;10.05;;;4.38;;
9166;SDS011;4618;48.818;9.088;2023-06-22T10:32:04;9.38;;;4.43;;
9166;SDS011;4618;48.818;9.088;2023-06-22T10:34:30;9.30;;;4.07;;
9166;SDS011;4618;48.818;9.088;2023-06-22T10:36:55;10.85;;;4.35;;
9166;SDS011;4618;48.818;9.088;2023-06-22T10:39:21;7.43;;;4.20;;
9166;SDS011;4618;48.818;9.088;2023-06-22T10:41:46;10.05;;;4.40;;
9166;SDS011;4618;48.818;9.088;2023-06-22T10:44:12;9.88;;;4.47;;
9166;SDS011;4618;48.818;9.088;2023-06-22T10:46:38;8.98;;;4.40;;
9166;SDS011;4618;48.818;9.088;2023-06-22T10:49:04;11.05;;;4.63;;
9166;SDS011;4618;48.818;9.088;2023-06-22T10:51:29;9.85;;;4.70;;
9166;SDS011;4618;48.818;9.088;2023-06-22T10:53:56;8.15;;;4.25;;
9166;SDS011;4618;48.818;9.088;2023-06-22T10:56:22;14.82;;;4.75;;
9166;SDS011;4618;48.818;9.088;2023-06-22T10:58:47;8.00;;;4.20;;
9166;SDS011;4618;48.818;9.088;2023-06-22T11:01:13;8.95;;;4.32;;
9166;SDS011;4618;48.818;9.088;2023-06-22T11:03:39;10.73;;;4.07;;
9166;SDS011;4618;48.818;9.088;2023-06-22T11:06:04;10.93;;;3.90;;
9166;SDS011;4618;48.818;9.088;2023-06-22T11:08:30;9.88;;;4.15;;
9166;SDS011;4618;48.818;9.088;2023-06-22T11:10:55;7.20;;;4.68;;
9166;SDS011;4618;48.818;9.088;2023-06-22T11:13:21;8.38;;;4.40;;
9166;SDS011;4618;48.818;9.088;2023-06-22T11:15:46;7.88;;;4.22;;
9166;SDS011;4618;48.818;9.088;2023-06-22T11:18:12;7.45;;;4.68;;
9166;SDS011;4618;48.818;9.088;2023-06-22T11:20:37;9.27;;;4.60;;
9166;SDS011;4618;48.818;9.088;2023-06-22T11:23:07;11.27;;;4.40;;
9166;SDS011;4618;48.818;9.088;2023-06-22T11:25:32;9.95;;;5.00;;
9166;SDS011;4618;48.818;9.088;2023-06-22T11:28:00;9.55;;;4.80;;
9166;SDS011;4618;48.818;9.088;2023-06-22T11:30:29;9.45;;;4.72;;
9166;SDS011;4618;48.818;9.088;2023-06-22T11:32:56;15.23;;;5.15;;
9166;SDS011;4618;48.818;9.088;2023-06-22T11:35:23;7.95;;;4.80;;
9166;SDS011;4618;48.818;9.088;2023-06-22T11:37:48;8.75;;;4.60;;
9166;SDS011;4618;48.818;9.088;2023-06-22T11:40:14;9.80;;;4.20;;
9166;SDS011;4618;48.818;9.088;2023-06-22T11:42:40;8.73;;;4.82;;
9166;SDS011;4618;48.818;9.088;2023-06-22T11:45:06;10.45;;;5.22;;
9166;SDS011;4618;48.818;9.088;2023-06-22T11:47:32;10.65;;;4.88;;
9166;SDS011;4618;48.818;9.088;2023-06-22T11:49:57;12.68;;;5.30;;
9166;SDS011;4618;48.818;9.088;2023-06-22T11:52:23;11.45;;;5.18;;
9166;SDS011;4618;48.818;9.088;2023-06-22T11:54:49;9.90;;;5.05;;
9166;SDS011;4618;48.818;9.088;2023-06-22T11:57:14;12.95;;;5.13;;
9166;SDS011;4618;48.818;9.088;2023-06-22T11:59:40;11.18;;;4.82;;
9166;SDS011;4618;48.818;9.088;2023-06-22T12:02:05;12.60;;;5.20;;
9166;SDS011;4618;48.818;9.088;2023-06-22T12:04:32;10.05;;;4.85;;
9166;SDS011;4618;48.818;9.088;2023-06-22T12:06:58;9.95;;;5.45;;
9166;SDS011;4618;48.818;9.088;2023-06-22T12:09:23;8.48;;;4.80;;
9166;SDS011;4618;48.818;9.088;2023-06-22T12:11:49;14.02;;;5.20;;
9166;SDS011;4618;48.818;9.088;2023-06-22T12:14:14;10.25;;;5.20;;
9166;SDS011;4618;48.818;9.088;2023-06-22T12:16:40;10.35;;;5.15;;
9166;SDS011;4618;48.818;9.088;2023-06-22T12:19:06;8.98;;;5.20;;
9166;SDS011;4618;48.818;9.088;2023-06-22T12:21:31;9.88;;;4.80;;
9166;SDS011;4618;48.818;9.088;2023-06-22T12:23:57;9.55;;;5.18;;
9166;SDS011;4618;48.818;9.088;2023-06-22T12:26:22;11.98;;;4.90;;
9166;SDS011;4618;48.818;9.088;2023-06-22T12:28:48;12.23;;;5.03;;
9166;SDS011;4618;48.818;9.088;2023-06-22T12:31:14;10.02;;;4.90;;
9166;SDS011;4618;48.818;9.088;2023-06-22T12:33:39;8.60;;;4.85;;
9166;SDS011;4618;48.818;9.088;2023-06-22T12:36:05;10.85;;;5.13;;
9166;SDS011;4618;48.818;9.088;2023-06-22T12:38:30;8.05;;;5.03;;
9166;SDS011;4618;48.818;9.088;2023-06-22T12:40:56;10.80;;;5.30;;
9166;SDS011;4618;48.818;9.088;2023-06-22T12:43:21;9.27;;;5.13;;
9166;SDS011;4618;48.818;9.088;2023-06-22T12:45:47;9.38;;;5.03;;
9166;SDS011;4618;48.818;9.088;2023-06-22T12:48:12;7.45;;;4.68;;
9166;SDS011;4618;48.818;9.088;2023-06-22T12:50:38;10.60;;;4.70;;
9166;SDS011;4618;48.818;9.088;2023-06-22T12:53:04;8.98;;;4.90;;
9166;SDS011;4618;48.818;9.088;2023-06-22T12:55:31;12.68;;;4.63;;
9166;SDS011;4618;48.818;9.088;2023-06-22T12:57:57;9.98;;;5.28;;
9166;SDS011;4618;48.818;9.088;2023-06-22T13:00:22;9.15;;;5.20;;
9166;SDS011;4618;48.818;9.088;2023-06-22T13:02:48;12.48;;;5.18;;
9166;SDS011;4618;48.818;9.088;2023-06-22T13:05:13;11.05;;;5.20;;
9166;SDS011;4618;48.818;9.088;2023-06-22T13:07:39;10.63;;;5.68;;
9166;SDS011;4618;48.818;9.088;2023-06-22T13:10:05;11.52;;;5.20;;
9166;SDS011;4618;48.818;9.088;2023-06-22T13:12:31;10.70;;;5.28;;
9166;SDS011;4618;48.818;9.088;2023-06-22T13:14:56;11.25;;;5.53;;
9166;SDS011;4618;48.818;9.088;2023-06-22T13:17:22;9.15;;;5.60;;
9166;SDS011;4618;48.818;9.088;2023-06-22T13:19:47;9.18;;;6.00;;
9166;SDS011;4618;48.818;9.088;2023-06-22T13:22:29;8.20;;;5.78;;
9166;SDS011;4618;48.818;9.088;2023-06-22T13:25:04;9.55;;;5.07;;
9166;SDS011;4618;48.818;9.088;2023-06-22T13:27:31;10.77;;;5.40;;
9166;SDS011;4618;48.818;9.088;2023-06-22T13:29:57;13.05;;;5.70;;
9166;SDS011;4618;48.818;9.088;2023-06-22T13:32:23;8.60;;;5.20;;
9166;SDS011;4618;48.818;9.088;2023-06-22T13:34:48;11.25;;;5.70;;
9166;SDS011;4618;48.818;9.088;2023-06-22T13:37:14;14.20;;;6.13;;
9166;SDS011;4618;48.818;9.088;2023-06-22T13:39:40;10.50;;;5.60;;
9166;SDS011;4618;48.818;9.088;2023-06-22T13:42:05;13.50;;;5.35;;
9166;SDS011;4618;48.818;9.088;2023-06-22T13:44:31;12.20;;;5.75;;
9166;SDS011;4618;48.818;9.088;2023-06-22T13:46:57;9.27;;;5.40;;
9166;SDS011;4618;48.818;9.088;2023-06-22T13:49:23;9.10;;;5.60;;
9166;SDS011;4618;48.818;9.088;2023-06-22T13:51:48;12.57;;;5.45;;
9166;SDS011;4618;48.818;9.088;2023-06-22T13:54:14;13.85;;;5.60;;
9166;SDS011;4618;48.818;9.088;2023-06-22T13:56:40;16.10;;;6.13;;
9166;SDS011;4618;48.818;9.088;2023-06-22T13:59:05;11.05;;;5.35;;
9166;SDS011;4618;48.818;9.088;2023-06-22T14:01:34;12.35;;;5.75;;
9166;SDS011;4618;48.818;9.088;2023-06-22T14:04:00;9.18;;;5.22;;
9166;SDS011;4618;48.818;9.088;2023-06-22T14:06:27;15.20;;;5.97;;
9166;SDS011;4618;48.818;9.088;2023-06-22T14:08:52;8.52;;;5.30;;
9166;SDS011;4618;48.818;9.088;2023-06-22T14:11:18;11.65;;;4.95;;
9166;SDS011;4618;48.818;9.088;2023-06-22T14:13:43;9.77;;;5.53;;
9166;SDS011;4618;48.818;9.088;2023-06-22T14:16:09;16.05;;;4.97;;
9166;SDS011;4618;48.818;9.088;2023-06-22T14:18:34;14.23;;;5.30;;
9166;SDS011;4618;48.818;9.088;2023-06-22T14:21:00;10.25;;;4.82;;
9166;SDS011;4618;48.818;9.088;2023-06-22T14:23:26;9.50;;;5.07;;
9166;SDS011;4618;48.818;9.088;2023-06-22T14:25:52;10.48;;;4.70;;
9166;SDS011;4618;48.818;9.088;2023-06-22T14:28:18;10.00;;;4.75;;
9166;SDS011;4618;48.818;9.088;2023-06-22T14:30:43;10.98;;;5.18;;
9166;SDS011;4618;48.818;9.088;2023-06-22T14:33:09;11.75;;;5.10;;
9166;SDS011;4618;48.818;9.088;2023-06-22T14:35:35;13.10;;;4.60;;
9166;SDS011;4618;48.818;9.088;2023-06-22T14:38:01;7.00;;;4.63;;
9166;SDS011;4618;48.818;9.088;2023-06-22T14:40:26;14.55;;;4.82;;
9166;SDS011;4618;48.818;9.088;2023-06-22T14:42:52;9.95;;;4.60;;
9166;SDS011;4618;48.818;9.088;2023-06-22T14:45:18;10.13;;;4.22;;
9166;SDS011;4618;48.818;9.088;2023-06-22T14:47:43;12.25;;;4.05;;
9166;SDS011;4618;48.818;9.088;2023-06-22T14:50:09;10.20;;;4.30;;
9166;SDS011;4618;48.818;9.088;2023-06-22T14:52:34;11.05;;;3.63;;
9166;SDS011;4618;48.818;9.088;2023-06-22T14:55:00;10.05;;;3.20;;
9166;SDS011;4618;48.818;9.088;2023-06-22T14:57:25;11.52;;;3.40;;
9166;SDS011;4618;48.818;9.088;2023-06-22T14:59:51;11.63;;;3.78;;
9166;SDS011;4618;48.818;9.088;2023-06-22T15:02:17;8.07;;;2.70;;
9166;SDS011;4618;48.818;9.088;2023-06-22T15:04:42;10.50;;;3.15;;
9166;SDS011;4618;48.818;9.088;2023-06-22T15:07:08;9.88;;;3.30;;